Time;durP1;ratioP1;P1;durP2;ratioP2;P2;SDS_P1;SDS_P2;PMS_P1;PMS_P2;Temp;Humidity;BMP_temperature;BMP_pressure;BME280_temperature;BME280_humidity;BME280_pressure;Samples;Min_cycle;Max_cycle;Signal;HPM_P1;HPM_P2
2023/06/08 00:02:04;;;;;;;20.38;18.17;;;;;;;19.03;100.00;100235.72;5082006;28;20094;-79
2023/06/08 00:04:32;;;;;;;20.33;17.67;;;;;;;19.08;100.00;100235.13;5070166;28;20127;-79
2023/06/08 00:07:03;;;;;;;20.15;18.08;;;;;;;19.09;100.00;100231.41;5068910;28;20028;-79
2023/06/08 00:09:29;;;;;;;20.77;18.52;;;;;;;19.07;100.00;100234.31;5083194;28;20111;-79
2023/06/08 00:11:55;;;;;;;21.50;19.27;;;;;;;19.02;100.00;100230.50;5074093;28;20025;-79
2023/06/08 00:14:21;;;;;;;21.13;18.65;;;;;;;19.09;100.00;100245.81;5078325;28;20025;-79
2023/06/08 00:16:48;;;;;;;22.10;19.25;;;;;;;19.05;100.00;100230.94;5082297;28;20063;-78
2023/06/08 00:19:14;;;;;;;21.50;19.20;;;;;;;19.06;100.00;100238.03;5068093;28;20056;-78
2023/06/08 00:21:42;;;;;;;23.05;18.52;;;;;;;19.01;100.00;100223.34;5083555;28;20085;-78
2023/06/08 00:24:09;;;;;;;22.40;19.05;;;;;;;19.04;100.00;100225.69;5079421;28;20016;-79
2023/06/08 00:26:35;;;;;;;23.52;19.38;;;;;;;19.07;100.00;100236.19;5079688;28;20020;-79
2023/06/08 00:29:01;;;;;;;21.60;19.35;;;;;;;18.94;100.00;100214.28;5067631;28;20039;-68
2023/06/08 00:31:26;;;;;;;20.23;18.02;;;;;;;19.08;100.00;100237.84;5067215;28;20027;-68
2023/06/08 00:33:51;;;;;;;22.70;18.65;;;;;;;19.08;100.00;100237.84;5070148;28;20468;-80
2023/06/08 00:36:17;;;;;;;20.55;18.55;;;;;;;19.06;100.00;100240.75;5075015;28;20086;-81
2023/06/08 00:38:43;;;;;;;23.92;19.15;;;;;;;19.02;100.00;100234.03;5067491;28;20032;-80
2023/06/08 00:41:08;;;;;;;21.05;18.88;;;;;;;19.04;100.00;100234.69;5075166;28;20035;-80
2023/06/08 00:43:34;;;;;;;20.83;18.73;;;;;;;19.05;100.00;100238.22;5072371;28;20059;-79
2023/06/08 00:46:02;;;;;;;21.90;19.60;;;;;;;19.02;100.00;100225.88;5075595;28;20028;-80
2023/06/08 00:48:29;;;;;;;23.80;18.42;;;;;;;18.95;100.00;100215.94;5072142;28;20035;-80
2023/06/08 00:50:57;;;;;;;21.33;19.13;;;;;;;19.01;100.00;100229.63;5082215;28;20389;-80
2023/06/08 00:53:24;;;;;;;20.55;18.55;;;;;;;19.05;100.00;100243.66;5070533;28;20054;-69
2023/06/08 00:55:53;;;;;;;20.15;18.15;;;;;;;18.97;100.00;100236.50;5067061;28;20101;-68
2023/06/08 00:58:19;;;;;;;20.40;18.27;;;;;;;18.96;100.00;100236.69;5067009;28;20202;-68
2023/06/08 01:00:46;;;;;;;19.05;17.08;;;;;;;19.00;100.00;100241.56;5066828;28;20785;-68
2023/06/08 01:03:13;;;;;;;21.55;17.88;;;;;;;19.01;100.00;100242.38;5085859;28;20028;-68
2023/06/08 01:05:38;;;;;;;19.48;17.50;;;;;;;18.95;100.00;100233.09;5087099;28;20020;-68
2023/06/08 01:08:10;;;;;;;20.25;18.17;;;;;;;19.03;100.00;100246.59;5087479;28;20035;-68
2023/06/08 01:11:20;;;;;;;18.65;16.77;;;;;;;19.00;100.00;100244.25;5071051;28;20032;-69
2023/06/08 01:14:17;;;;;;;18.70;16.83;;;;;;;18.98;100.00;100243.59;5042241;28;20036;-69
2023/06/08 01:16:52;;;;;;;19.23;17.30;;;;;;;18.97;100.00;100241.06;5069736;28;20082;-69
2023/06/08 01:19:42;;;;;;;18.92;17.00;;;;;;;18.94;100.00;100242.31;5070452;28;20032;-68
2023/06/08 01:22:28;;;;;;;18.55;16.60;;;;;;;18.97;100.00;100236.50;5063058;28;20093;-69
2023/06/08 01:24:59;;;;;;;19.17;16.90;;;;;;;18.83;100.00;100217.50;5070919;28;20020;-68
2023/06/08 01:27:26;;;;;;;18.63;16.67;;;;;;;18.94;100.00;100236.88;5090477;28;20032;-69
2023/06/08 01:29:52;;;;;;;18.77;16.88;;;;;;;18.94;100.00;100236.00;5090744;28;20277;-68
2023/06/08 01:32:19;;;;;;;17.65;15.85;;;;;;;18.85;100.00;100229.84;5090840;28;20032;-68
2023/06/08 01:34:45;;;;;;;18.70;16.90;;;;;;;18.91;100.00;100248.13;5070941;28;20027;-80
2023/06/08 01:37:31;;;;;;;16.98;15.27;;;;;;;18.89;100.00;100239.31;5091136;28;20085;-80
2023/06/08 01:40:33;;;;;;;17.85;15.95;;;;;;;18.88;100.00;100247.63;5090679;28;20044;-79
2023/06/08 01:43:01;;;;;;;17.35;15.68;;;;;;;18.79;100.00;100227.03;5064411;28;20084;-80
2023/06/08 01:45:32;;;;;;;17.63;15.82;;;;;;;18.88;100.00;100244.94;5078881;28;20028;-79
2023/06/08 01:48:02;;;;;;;22.52;16.35;;;;;;;18.81;100.00;100227.69;5070873;28;20104;-80
2023/06/08 01:50:29;;;;;;;17.38;15.68;;;;;;;18.92;100.00;100248.94;5077327;28;20078;-80
2023/06/08 01:52:55;;;;;;;18.95;16.98;;;;;;;18.86;100.00;100245.13;5081291;28;20421;-79
2023/06/08 01:55:22;;;;;;;19.02;17.02;;;;;;;18.84;100.00;100227.31;5071062;28;20599;-80
2023/06/08 01:57:48;;;;;;;16.98;15.27;;;;;;;18.92;100.00;100249.78;5083245;28;20469;-79
2023/06/08 02:00:15;;;;;;;22.25;17.33;;;;;;;18.92;100.00;100241.63;5073294;28;20040;-79
2023/06/08 02:02:41;;;;;;;17.65;16.05;;;;;;;18.91;100.00;100242.69;5078374;28;20040;-79
2023/06/08 02:05:10;;;;;;;18.05;16.25;;;;;;;18.91;100.00;100242.69;5082808;28;20026;-80
2023/06/08 02:07:38;;;;;;;21.63;16.52;;;;;;;18.87;100.00;100241.38;5069423;28;20178;-80
2023/06/08 02:10:05;;;;;;;17.65;15.85;;;;;;;18.89;100.00;100250.16;5070095;28;20055;-79
2023/06/08 02:12:30;;;;;;;18.10;16.30;;;;;;;18.88;100.00;100242.22;5070091;28;20107;-80
2023/06/08 02:14:56;;;;;;;19.15;16.55;;;;;;;18.86;100.00;100250.53;5078419;28;20114;-79
2023/06/08 02:17:27;;;;;;;20.95;15.75;;;;;;;18.87;100.00;100254.13;5070004;28;20032;-80
2023/06/08 02:19:55;;;;;;;18.08;14.95;;;;;;;18.87;100.00;100244.09;5075786;28;20016;-81
2023/06/08 02:22:21;;;;;;;18.42;16.67;;;;;;;18.86;100.00;100245.13;5084851;28;20028;-79
2023/06/08 02:24:49;;;;;;;18.50;16.58;;;;;;;18.84;100.00;100233.59;5084892;28;20032;-79
2023/06/08 02:27:16;;;;;;;18.65;16.83;;;;;;;18.76;100.00;100222.00;5082931;28;20025;-79
2023/06/08 02:29:41;;;;;;;16.95;15.35;;;;;;;18.75;100.00;100221.16;5076976;28;20076;-79
2023/06/08 02:32:07;;;;;;;18.00;16.30;;;;;;;18.86;100.00;100247.00;5073675;28;20028;-80
2023/06/08 02:34:35;;;;;;;18.42;16.63;;;;;;;18.80;100.00;100245.88;5075153;28;20476;-79
2023/06/08 02:37:01;;;;;;;20.63;17.55;;;;;;;18.88;100.00;100259.38;5069753;28;20501;-69
2023/06/08 02:39:26;;;;;;;18.40;16.40;;;;;;;18.85;100.00;100250.75;5069310;28;20308;-69
2023/06/08 02:41:51;;;;;;;18.00;16.20;;;;;;;18.88;100.00;100247.63;5069626;28;20027;-68
2023/06/08 02:44:17;;;;;;;18.55;16.65;;;;;;;18.89;100.00;100241.19;5086024;28;20031;-68
2023/06/08 02:46:42;;;;;;;19.08;17.15;;;;;;;18.88;100.00;100243.06;5070428;28;20029;-68
2023/06/08 02:49:08;;;;;;;18.42;16.52;;;;;;;18.87;100.00;100246.81;5067792;28;20036;-68
2023/06/08 02:51:35;;;;;;;17.80;15.90;;;;;;;18.86;100.00;100245.13;5067826;28;20372;-68
2023/06/08 02:54:01;;;;;;;18.58;16.73;;;;;;;18.78;100.00;100237.06;5069395;28;20115;-68
2023/06/08 02:56:26;;;;;;;17.65;15.95;;;;;;;18.86;100.00;100253.25;5067533;28;20112;-67
2023/06/08 02:58:52;;;;;;;18.30;16.27;;;;;;;18.77;100.00;100234.53;5069267;28;20020;-68
2023/06/08 03:01:18;;;;;;;19.02;17.05;;;;;;;18.77;100.00;100232.66;5067269;28;20044;-68
2023/06/08 03:03:45;;;;;;;18.27;16.23;;;;;;;18.75;100.00;100229.31;5069267;28;20020;-68
2023/06/08 03:06:14;;;;;;;18.10;16.20;;;;;;;18.77;100.00;100243.53;5067625;28;20024;-68
2023/06/08 03:08:39;;;;;;;18.33;16.52;;;;;;;18.71;100.00;100238.88;5067357;28;20063;-68
2023/06/08 03:11:05;;;;;;;16.48;14.70;;;;;;;18.68;100.00;100222.94;5069138;28;20059;-68
2023/06/08 03:13:30;;;;;;;16.70;15.00;;;;;;;18.69;100.00;100232.78;5067278;28;20028;-67
2023/06/08 03:15:56;;;;;;;17.77;16.05;;;;;;;18.70;100.00;100229.00;5068749;28;20550;-68
2023/06/08 03:18:24;;;;;;;17.30;15.63;;;;;;;18.72;100.00;100231.53;5074809;28;20056;-69
2023/06/08 03:20:53;;;;;;;18.63;16.63;;;;;;;18.84;100.00;100257.22;5088858;28;20035;-68
2023/06/08 03:23:20;;;;;;;18.67;16.70;;;;;;;18.78;100.00;100253.38;5088828;28;20035;-67
2023/06/08 03:25:52;;;;;;;18.45;16.48;;;;;;;18.82;100.00;100249.25;5088925;28;20070;-68
2023/06/08 03:28:18;;;;;;;15.80;14.30;;;;;;;18.78;100.00;100245.22;5067682;28;20031;-69
2023/06/08 03:30:43;;;;;;;15.70;14.30;;;;;;;18.68;100.00;100232.97;5066773;28;20044;-68
2023/06/08 03:33:10;;;;;;;17.08;15.38;;;;;;;18.81;100.00;100253.00;5065549;28;20025;-70
2023/06/08 03:35:35;;;;;;;16.40;14.90;;;;;;;18.72;100.00;100234.25;5068361;28;20467;-69
2023/06/08 03:38:01;;;;;;;16.73;14.85;;;;;;;18.77;100.00;100240.81;5067349;28;20082;-69
2023/06/08 03:40:26;;;;;;;17.02;15.02;;;;;;;18.75;100.00;100240.16;5068147;28;20519;-69
2023/06/08 03:42:52;;;;;;;17.90;15.88;;;;;;;18.72;100.00;100237.81;5081454;28;20032;-70
2023/06/08 03:45:17;;;;;;;17.40;15.70;;;;;;;18.82;100.00;100251.13;5067316;28;20116;-80
2023/06/08 03:47:43;;;;;;;16.95;15.35;;;;;;;18.83;100.00;100247.38;5076803;28;20028;-78
2023/06/08 03:50:11;;;;;;;16.20;14.65;;;;;;;18.78;100.00;100247.09;5071387;28;20024;-79
2023/06/08 03:52:38;;;;;;;16.00;14.43;;;;;;;18.80;100.00;100254.00;5068211;28;20024;-79
2023/06/08 03:55:05;;;;;;;15.52;14.02;;;;;;;18.69;100.00;100238.19;5067256;28;20028;-79
2023/06/08 03:57:31;;;;;;;15.43;13.70;;;;;;;18.70;100.00;100239.88;5069382;28;20031;-80
2023/06/08 03:59:56;;;;;;;14.73;13.32;;;;;;;18.71;100.00;100233.44;5076485;28;20021;-79
2023/06/08 04:02:22;;;;;;;15.82;14.23;;;;;;;18.81;100.00;100257.59;5076531;28;20055;-80
2023/06/08 04:04:47;;;;;;;16.48;14.77;;;;;;;18.80;100.00;100254.00;5073878;28;20024;-79
2023/06/08 04:07:13;;;;;;;16.50;14.90;;;;;;;18.69;100.00;100238.19;5060823;28;20490;-80
2023/06/08 04:09:38;;;;;;;17.15;15.63;;;;;;;18.81;100.00;100257.59;5070110;28;20027;-80
2023/06/08 04:12:05;;;;;;;17.00;15.18;;;;;;;18.80;100.00;100259.44;5071606;28;20065;-80
2023/06/08 04:14:31;;;;;;;16.35;14.50;;;;;;;18.82;100.00;100265.56;5067795;28;20185;-79
2023/06/08 04:16:56;;;;;;;14.98;13.35;;;;;;;18.82;100.00;100261.97;5073673;28;20095;-78
2023/06/08 04:19:22;;;;;;;16.52;14.82;;;;;;;18.78;100.00;100247.94;5070969;28;20016;-79
2023/06/08 04:21:48;;;;;;;15.80;14.18;;;;;;;18.77;100.00;100250.84;5071790;28;20408;-79
2023/06/08 04:24:13;;;;;;;15.82;14.23;;;;;;;18.83;100.00;100259.06;5074611;28;20047;-79
2023/06/08 04:26:39;;;;;;;17.13;15.40;;;;;;;18.77;100.00;100240.81;5068666;28;20398;-79
2023/06/08 04:29:05;;;;;;;19.27;15.38;;;;;;;18.77;100.00;100242.69;5072225;28;20025;-79
2023/06/08 04:31:30;;;;;;;18.38;14.30;;;;;;;18.77;100.00;100239.97;5064066;28;20033;-80
2023/06/08 04:33:56;;;;;;;16.35;14.68;;;;;;;18.87;100.00;100248.69;5070580;28;20032;-80
2023/06/08 04:36:22;;;;;;;16.73;15.00;;;;;;;18.87;100.00;100256.84;5087563;28;20497;-64
2023/06/08 04:38:47;;;;;;;16.13;14.52;;;;;;;18.89;100.00;100252.06;5087524;28;20034;-62
2023/06/08 04:41:13;;;;;;;15.52;13.15;;;;;;;18.84;100.00;100241.75;5087563;28;20020;-63
2023/06/08 04:43:38;;;;;;;17.52;15.35;;;;;;;18.92;100.00;100248.94;5086701;28;20027;-62
2023/06/08 04:46:07;;;;;;;18.20;15.88;;;;;;;18.95;100.00;100251.28;5087354;28;20020;-63
2023/06/08 04:48:33;;;;;;;16.92;15.13;;;;;;;18.96;100.00;100259.25;5087390;28;20035;-63
2023/06/08 04:51:09;;;;;;;16.42;14.73;;;;;;;18.98;100.00;100259.91;5080581;28;20055;-62
2023/06/08 04:53:34;;;;;;;18.20;15.90;;;;;;;18.99;100.00;100250.72;5075301;28;20032;-63
2023/06/08 04:56:02;;;;;;;19.85;16.60;;;;;;;19.03;100.00;100256.63;5080803;28;20077;-63
2023/06/08 04:58:28;;;;;;;18.30;16.05;;;;;;;18.99;100.00;100256.16;5069458;28;20097;-62
2023/06/08 05:00:55;;;;;;;17.15;15.35;;;;;;;19.07;100.00;100263.38;5086397;28;20052;-63
2023/06/08 05:03:21;;;;;;;16.33;14.40;;;;;;;18.97;100.00;100241.06;5077674;28;20036;-63
2023/06/08 05:05:47;;;;;;;18.63;16.38;;;;;;;19.02;100.00;100242.19;5079003;28;20538;-63
2023/06/08 05:08:12;;;;;;;19.65;14.30;;;;;;;19.07;100.00;100261.50;5067904;28;20119;-62
2023/06/08 05:10:38;;;;;;;16.90;15.30;;;;;;;19.02;100.00;100238.66;5082416;28;20479;-63
2023/06/08 05:13:03;;;;;;;17.05;15.10;;;;;;;19.17;100.00;100264.75;5073279;28;20057;-63
2023/06/08 05:15:31;;;;;;;16.20;14.60;;;;;;;19.17;100.00;100259.31;5076102;28;20024;-63
2023/06/08 05:17:57;;;;;;;16.25;14.55;;;;;;;19.17;100.00;100253.88;5076056;28;20054;-64
2023/06/08 05:20:24;;;;;;;16.92;15.15;;;;;;;19.22;100.00;100265.00;5083163;28;20027;-63
2023/06/08 05:22:50;;;;;;;16.90;15.13;;;;;;;19.28;100.00;100272.44;5070933;28;20024;-62
2023/06/08 05:25:16;;;;;;;18.25;16.35;;;;;;;19.31;100.00;100271.25;5076727;28;20497;-63
2023/06/08 05:27:41;;;;;;;15.93;13.95;;;;;;;19.27;100.00;100259.03;5065130;28;20025;-63
2023/06/08 05:30:07;;;;;;;16.48;14.77;;;;;;;19.37;100.00;100279.47;5081432;28;20666;-63
2023/06/08 05:32:33;;;;;;;18.27;15.25;;;;;;;19.40;100.00;100280.94;5086509;28;20046;-63
2023/06/08 05:35:00;;;;;;;19.98;17.63;;;;;;;19.39;100.00;100274.69;5086757;28;20032;-63
2023/06/08 05:37:26;;;;;;;23.27;16.58;;;;;;;19.42;100.00;100276.16;5066300;28;20016;-64
2023/06/08 05:39:51;;;;;;;22.77;18.10;;;;;;;19.46;100.00;100280.19;5065111;28;20036;-64
2023/06/08 05:42:16;;;;;;;19.58;16.83;;;;;;;19.48;100.00;100283.56;5071333;28;20145;-63
2023/06/08 05:44:42;;;;;;;19.77;16.98;;;;;;;19.51;100.00;100278.56;5086610;28;20030;-63
2023/06/08 05:47:07;;;;;;;16.27;14.30;;;;;;;19.55;100.00;100284.47;5086590;28;20040;-63
2023/06/08 05:49:33;;;;;;;20.15;17.20;;;;;;;19.53;100.00;100276.50;5086214;28;20035;-68
2023/06/08 05:51:58;;;;;;;21.52;17.35;;;;;;;19.61;100.00;100283.69;5068045;28;20035;-69
2023/06/08 05:54:24;;;;;;;19.00;17.05;;;;;;;19.68;100.00;100277.28;5066430;28;20024;-69
2023/06/08 05:56:50;;;;;;;19.88;17.95;;;;;;;19.66;100.00;100262.19;5069917;28;20028;-69
2023/06/08 05:59:16;;;;;;;18.67;16.25;;;;;;;19.66;100.00;100254.88;5077466;28;20097;-69
2023/06/08 06:01:42;;;;;;;18.10;16.17;;;;;;;19.78;100.00;100266.06;5078341;28;20079;-69
2023/06/08 06:04:09;;;;;;;20.73;16.92;;;;;;;19.82;100.00;100275.53;5085780;28;20055;-69
2023/06/08 06:06:35;;;;;;;19.63;17.35;;;;;;;19.84;100.00;100268.03;5069397;28;20103;-69
2023/06/08 06:09:03;;;;;;;18.58;16.67;;;;;;;19.89;100.00;100269.13;5071802;28;20028;-69
2023/06/08 06:11:30;;;;;;;17.70;14.90;;;;;;;19.99;100.00;100269.63;5069954;28;20035;-69
2023/06/08 06:13:56;;;;;;;16.75;15.13;;;;;;;20.08;100.00;100273.03;5085836;28;20055;-69
2023/06/08 06:16:21;;;;;;;16.85;15.18;;;;;;;20.21;100.00;100277.81;5075028;28;20103;-69
2023/06/08 06:18:47;;;;;;;14.65;13.30;;;;;;;20.35;100.00;100265.97;5077512;28;20115;-67
2023/06/08 06:21:13;;;;;;;16.25;14.75;;;;;;;20.50;100.00;100264.81;5082264;28;20364;-67
2023/06/08 06:23:39;;;;;;;17.65;15.85;;;;;;;20.57;100.00;100259.41;5085292;28;20110;-67
2023/06/08 06:26:05;;;;;;;18.20;16.40;;;;;;;20.72;100.00;100268.28;5089805;28;20043;-67
2023/06/08 06:28:31;;;;;;;19.80;17.40;;;;;;;20.76;100.00;100264.13;5080460;28;20112;-67
2023/06/08 06:30:56;;;;;;;16.90;15.20;;;;;;;20.78;100.00;100249.25;5073465;28;20032;-67
2023/06/08 06:33:22;;;;;;;16.80;13.27;;;;;;;20.96;100.00;100263.19;5068153;28;20032;-67
2023/06/08 06:35:47;;;;;;;13.52;11.77;;;;;;;21.14;100.00;100273.56;5068684;28;20148;-67
2023/06/08 06:38:13;;;;;;;13.18;11.95;;;;;;;21.21;100.00;100258.91;5067331;28;20047;-67
2023/06/08 06:40:38;;;;;;;12.93;11.63;;;;;;;21.43;100.00;100270.53;5068531;28;20032;-67
2023/06/08 06:43:04;;;;;;;14.98;13.57;;;;;;;21.43;100.00;100252.28;5067566;28;20066;-68
2023/06/08 06:45:30;;;;;;;15.57;13.95;;;;;;;21.52;100.00;100258.38;5067582;28;20018;-68
2023/06/08 06:47:55;;;;;;;14.52;13.00;;;;;;;21.57;100.00;100250.44;5069218;28;20502;-67
2023/06/08 06:50:21;;;;;;;13.85;11.95;;;;;;;21.69;100.00;100248.75;5069080;28;20529;-68
2023/06/08 06:52:46;;;;;;;15.68;12.55;;;;;;;21.84;100.00;100260.34;5069027;28;20028;-69
2023/06/08 06:55:12;;;;;;;13.57;12.27;;;;;;;21.97;100.00;100271.28;5069204;28;20028;-68
2023/06/08 06:57:37;;;;;;;14.45;12.15;;;;;;;21.97;100.00;100257.63;5066958;28;20451;-68
2023/06/08 07:00:10;;;;;;;16.00;13.05;;;;;;;21.99;100.00;100252.81;5067683;28;20115;-68
2023/06/08 07:02:37;;;;;;;14.98;13.20;;;;;;;22.13;100.00;100265.41;5068658;28;20040;-68
2023/06/08 07:05:04;;;;;;;13.40;11.98;;;;;;;22.30;100.00;100262.06;5070340;28;20024;-68
2023/06/08 07:07:30;;;;;;;12.80;11.25;;;;;;;22.48;100.00;100272.34;5074982;28;20032;-68
2023/06/08 07:09:55;;;;;;;12.82;11.50;;;;;;;22.61;100.00;100277.81;5089009;28;20036;-68
2023/06/08 07:12:21;;;;;;;13.88;12.48;;;;;;;22.68;98.89;100259.50;5088731;28;20044;-68
2023/06/08 07:14:46;;;;;;;12.85;11.65;;;;;;;22.80;97.52;100267.88;5088703;28;20023;-68
2023/06/08 07:17:12;;;;;;;14.23;11.95;;;;;;;22.90;96.64;100277.34;5089111;28;20455;-68
2023/06/08 07:19:39;;;;;;;10.88;9.88;;;;;;;23.00;96.37;100280.44;5064905;28;20033;-68
2023/06/08 07:22:06;;;;;;;13.50;11.15;;;;;;;23.11;95.98;100277.03;5068636;28;20421;-68
2023/06/08 07:24:31;;;;;;;11.73;10.63;;;;;;;23.25;94.31;100269.66;5068231;28;20060;-68
2023/06/08 07:26:57;;;;;;;12.32;10.52;;;;;;;23.44;93.15;100269.53;5068604;28;20066;-68
2023/06/08 07:29:23;;;;;;;11.43;9.85;;;;;;;23.55;92.10;100274.34;5068296;28;20027;-68
2023/06/08 07:31:48;;;;;;;11.40;10.25;;;;;;;23.60;90.74;100266.28;5067333;28;20040;-68
2023/06/08 07:34:14;;;;;;;11.27;9.90;;;;;;;23.64;89.76;100261.22;5066913;28;20484;-68
2023/06/08 07:36:39;;;;;;;11.85;10.65;;;;;;;23.70;88.29;100258.44;5066301;28;20472;-68
2023/06/08 07:39:05;;;;;;;11.98;10.52;;;;;;;23.80;87.30;100267.00;5064404;28;20503;-69
2023/06/08 07:41:31;;;;;;;10.75;9.63;;;;;;;23.84;86.82;100268.25;5066662;28;20454;-68
2023/06/08 07:43:57;;;;;;;12.68;11.38;;;;;;;23.90;87.09;100264.59;5067007;28;20024;-68
2023/06/08 07:46:22;;;;;;;10.13;8.65;;;;;;;24.03;87.23;100267.31;5067876;28;20029;-68
2023/06/08 07:48:48;;;;;;;14.45;11.48;;;;;;;24.09;86.65;100260.91;5067815;28;20062;-68
2023/06/08 07:51:14;;;;;;;13.82;12.43;;;;;;;24.16;86.51;100278.16;5066469;28;20031;-68
2023/06/08 07:53:40;;;;;;;14.35;12.85;;;;;;;24.20;86.32;100279.38;5065540;28;20122;-69
2023/06/08 07:56:06;;;;;;;15.63;12.05;;;;;;;24.15;86.11;100264.69;5068074;28;20028;-69
2023/06/08 07:58:33;;;;;;;13.00;10.98;;;;;;;24.12;85.53;100267.88;5066290;28;20035;-69
2023/06/08 08:00:59;;;;;;;12.55;11.25;;;;;;;24.12;85.04;100260.47;5067901;28;20522;-69
2023/06/08 08:03:24;;;;;;;13.52;12.20;;;;;;;24.13;85.25;100266.78;5066329;28;20024;-69
2023/06/08 08:05:50;;;;;;;13.45;12.15;;;;;;;24.13;85.56;100259.41;5068254;28;20516;-69
2023/06/08 08:08:16;;;;;;;17.23;13.75;;;;;;;24.13;85.25;100264.91;5067678;28;20032;-69
2023/06/08 08:10:42;;;;;;;13.50;11.90;;;;;;;24.04;85.58;100249.78;5067661;28;20034;-78
2023/06/08 08:13:08;;;;;;;13.02;11.63;;;;;;;24.01;84.78;100238.41;5066729;28;20028;-78
2023/06/08 08:15:34;;;;;;;14.02;11.43;;;;;;;24.04;85.00;100246.19;5070241;28;20036;-78
2023/06/08 08:18:00;;;;;;;11.80;10.63;;;;;;;24.11;83.97;100258.78;5067412;28;20020;-78
2023/06/08 08:20:25;;;;;;;11.52;10.43;;;;;;;24.19;83.70;100258.50;5070221;28;20263;-78
2023/06/08 08:22:51;;;;;;;10.77;9.70;;;;;;;24.30;83.09;100266.00;5079577;28;20035;-78
2023/06/08 08:25:16;;;;;;;10.35;9.35;;;;;;;24.38;82.75;100254.75;5071881;28;20051;-77
2023/06/08 08:27:42;;;;;;;9.40;8.40;;;;;;;24.48;82.58;100242.44;5066279;28;20453;-78
2023/06/08 08:30:08;;;;;;;8.35;7.55;;;;;;;24.68;80.58;100241.19;5068518;28;20437;-77
2023/06/08 08:32:33;;;;;;;11.65;10.13;;;;;;;24.79;79.02;100245.91;5072149;28;20035;-77
2023/06/08 08:34:59;;;;;;;10.32;8.57;;;;;;;24.83;77.54;100247.16;5074522;28;20470;-77
2023/06/08 08:37:24;;;;;;;9.70;8.43;;;;;;;24.86;77.57;100241.19;5087299;28;20027;-77
2023/06/08 08:39:50;;;;;;;10.45;9.40;;;;;;;24.83;77.26;100227.94;5087554;28;20120;-77
2023/06/08 08:42:24;;;;;;;8.88;7.97;;;;;;;25.03;77.48;100246.91;5066264;28;20024;-77
2023/06/08 08:44:54;;;;;;;8.10;7.22;;;;;;;25.14;75.95;100249.72;5070283;28;20416;-77
2023/06/08 08:47:24;;;;;;;8.98;6.10;;;;;;;25.21;74.29;100244.97;5067196;28;20537;-77
2023/06/08 08:50:03;;;;;;;6.32;5.65;;;;;;;25.20;72.65;100236.97;5076169;28;20028;-77
2023/06/08 08:52:33;;;;;;;10.32;6.45;;;;;;;25.30;71.48;100242.75;5077999;28;20383;-77
2023/06/08 08:55:00;;;;;;;6.55;5.95;;;;;;;25.25;70.69;100245.38;5088138;28;20028;-78
2023/06/08 08:57:30;;;;;;;7.85;7.13;;;;;;;25.30;70.82;100253.72;5088386;28;20020;-78
2023/06/08 08:59:56;;;;;;;11.93;8.65;;;;;;;25.26;73.34;100249.78;5088176;28;20027;-77
2023/06/08 09:02:22;;;;;;;9.95;8.95;;;;;;;25.21;74.49;100247.72;5082013;28;20043;-77
2023/06/08 09:04:48;;;;;;;10.75;8.65;;;;;;;25.18;74.45;100242.69;5087601;28;20460;-77
2023/06/08 09:07:21;;;;;;;9.60;8.60;;;;;;;25.10;75.29;100239.44;5087355;28;20077;-77
2023/06/08 09:10:11;;;;;;;9.32;7.90;;;;;;;25.00;75.69;100245.47;5084681;28;20028;-77
2023/06/08 09:12:45;;;;;;;9.85;8.93;;;;;;;24.86;75.85;100240.38;5073978;28;20031;-77
2023/06/08 09:15:12;;;;;;;10.93;9.02;;;;;;;24.76;75.63;100242.81;5082263;28;20051;-77
2023/06/08 09:17:40;;;;;;;8.82;7.90;;;;;;;24.61;75.95;100237.66;5087298;28;20031;-77
2023/06/08 09:20:10;;;;;;;12.23;9.50;;;;;;;24.60;76.56;100246.13;5079549;28;20032;-77
2023/06/08 09:22:36;;;;;;;13.55;9.60;;;;;;;24.54;76.71;100236.03;5079367;28;20050;-77
2023/06/08 09:25:06;;;;;;;14.43;9.30;;;;;;;24.45;77.33;100233.56;5071693;28;20116;-77
2023/06/08 09:27:32;;;;;;;10.38;9.23;;;;;;;24.47;77.75;100229.78;5077101;28;20063;-77
2023/06/08 09:30:02;;;;;;;13.55;9.63;;;;;;;24.42;77.84;100225.84;5069240;28;20025;-77
2023/06/08 09:32:31;;;;;;;8.52;7.72;;;;;;;24.35;78.51;100226.97;5085026;28;20029;-78
2023/06/08 09:35:02;;;;;;;10.13;8.63;;;;;;;24.41;78.34;100215.91;5072476;28;20028;-78
2023/06/08 09:37:32;;;;;;;9.48;7.65;;;;;;;24.38;78.00;100210.06;5088424;28;20028;-80
2023/06/08 09:39:59;;;;;;;9.38;8.25;;;;;;;24.43;78.40;100222.00;5082161;28;20154;-78
2023/06/08 09:42:42;;;;;;;8.13;7.32;;;;;;;24.29;78.06;100200.44;5087064;28;20020;-78
2023/06/08 09:45:09;;;;;;;9.20;6.95;;;;;;;24.40;78.44;100214.25;5074343;28;20020;-78
2023/06/08 09:47:34;;;;;;;9.82;8.30;;;;;;;24.34;78.21;100208.81;5081402;28;20059;-78
2023/06/08 09:50:00;;;;;;;9.15;7.68;;;;;;;24.35;78.34;100211.31;5079879;28;20082;-78
2023/06/08 09:52:25;;;;;;;8.90;6.70;;;;;;;24.30;78.40;100196.63;5082186;28;20808;-78
2023/06/08 09:54:52;;;;;;;7.75;6.85;;;;;;;24.25;78.24;100183.59;5085805;28;20032;-80
2023/06/08 09:57:21;;;;;;;8.45;7.32;;;;;;;24.26;77.80;100189.91;5084743;28;20035;-78
2023/06/08 09:59:53;;;;;;;10.50;7.10;;;;;;;24.20;78.71;100182.59;5088812;28;20028;-78
2023/06/08 10:02:21;;;;;;;9.52;7.35;;;;;;;24.24;79.04;100187.41;5077023;28;20052;-78
2023/06/08 10:04:55;;;;;;;7.95;7.10;;;;;;;24.23;78.81;100191.22;5083112;28;20032;-78
2023/06/08 10:07:29;;;;;;;10.80;6.70;;;;;;;24.22;79.39;100186.78;5070238;28;20220;-78
2023/06/08 10:10:05;;;;;;;7.10;6.40;;;;;;;24.22;79.18;100184.03;5075870;28;20031;-78
2023/06/08 10:12:31;;;;;;;9.93;6.75;;;;;;;24.17;79.46;100167.44;5073846;28;20467;-77
2023/06/08 10:14:58;;;;;;;6.68;5.43;;;;;;;24.20;79.92;100161.53;5066260;28;20028;-77
2023/06/08 10:17:25;;;;;;;7.53;6.82;;;;;;;24.16;79.88;100156.72;5080713;28;20028;-78
2023/06/08 10:19:51;;;;;;;8.65;7.53;;;;;;;24.22;80.92;100155.81;5078005;28;20131;-78
2023/06/08 10:22:18;;;;;;;7.38;6.70;;;;;;;24.26;81.09;100157.03;5085623;28;20248;-78
2023/06/08 10:24:46;;;;;;;8.68;6.35;;;;;;;24.27;81.34;100154.06;5078788;28;20062;-78
2023/06/08 10:27:28;;;;;;;8.60;6.60;;;;;;;24.25;80.41;100150.69;5067587;28;20028;-78
2023/06/08 10:29:55;;;;;;;6.72;6.03;;;;;;;24.24;80.09;100142.69;5082055;28;20039;-78
2023/06/08 10:32:30;;;;;;;6.30;5.75;;;;;;;24.21;79.36;100144.00;5078689;28;20490;-78
2023/06/08 10:34:57;;;;;;;8.98;6.45;;;;;;;24.08;79.83;100143.28;5085459;28;20058;-78
2023/06/08 10:37:30;;;;;;;9.63;6.30;;;;;;;24.08;81.34;100159.72;5070909;28;20502;-78
2023/06/08 10:40:06;;;;;;;9.32;6.43;;;;;;;24.05;81.64;100169.25;5087173;28;20165;-78
2023/06/08 10:42:32;;;;;;;8.45;6.15;;;;;;;23.89;81.80;100164.31;5089462;28;20028;-78
2023/06/08 10:44:58;;;;;;;10.40;6.63;;;;;;;23.88;82.16;100175.47;5069743;28;20086;-78
2023/06/08 10:47:25;;;;;;;7.15;5.95;;;;;;;23.87;81.90;100179.28;5087903;28;20032;-78
2023/06/08 10:49:57;;;;;;;7.13;5.95;;;;;;;23.81;82.18;100170.06;5068884;28;20425;-70
2023/06/08 10:52:23;;;;;;;9.00;5.50;;;;;;;23.76;81.80;100177.28;5069211;28;20467;-70
2023/06/08 10:55:08;;;;;;;12.25;6.53;;;;;;;23.74;81.59;100183.00;5068842;28;20038;-70
2023/06/08 10:57:43;;;;;;;9.45;5.97;;;;;;;23.71;81.76;100188.91;5069520;28;20396;-70
2023/06/08 11:00:22;;;;;;;9.68;5.90;;;;;;;23.67;81.49;100186.84;5069698;28;20032;-70
2023/06/08 11:02:49;;;;;;;10.30;6.45;;;;;;;23.63;81.62;100191.91;5068479;28;20044;-70
2023/06/08 11:05:15;;;;;;;9.48;5.97;;;;;;;23.57;81.52;100192.78;5069020;28;20028;-70
2023/06/08 11:07:41;;;;;;;7.93;5.78;;;;;;;23.47;82.56;100200.66;5067269;28;20055;-70
2023/06/08 11:10:07;;;;;;;9.20;6.50;;;;;;;23.35;85.33;100210.66;5067437;28;20484;-70